Create Custom Reports and Graphics: Custom Report

Stanford Met Tower

Current Conditions

6/12/21 5:00 PM (-07:00)
Updated Every 15 Minutes
Temp 78.4 °F   6.3
RH 54 %   11
Dew Pt 60.2 °F   12.0
Wind Dir NNW | 328 °
Wind Spd 8.7 mph   1.5
Wind Gust 15.3 mph   5.2
NowCast AQI Value 3 AQI   1
NowCast AQI Status Good
Daily Min Temp 55.2 °F   12.6
Daily Max Temp 81.4 °F   7.4
Daily Max Wind 19.8 mph   0.8
Yesterday’s Min Temp 42.6 °F
Yesterday's Max Temp 74.0 °F
Yesterday's Max Wind 20.5 mph
Seasonal Rainfall 7.38 In

Last 48 Hours

Stanford Met Tower

Hourly Data | America/Los_Angeles
as of 6/12/21 5:04 PM PDT
Date & Time Temp (°F) Heat Index (°F) WindChill (°F) RH (%) Dew Pt (°F) Wind Dir (°) Wind Spd (mph) Wind Gust (mph) Solar Rad (W/m2) Pressure (mb) (mb) NowCast AQI Value (AQI) NowCast AQI Status Latest Rain (In) Daily Rain (In) Daily Min Temp (°F) Daily Max Temp (°F)
6/12/21 - 1700 79.2 - - 53 60.5 NNW | 335 9.7 19.4 665 1,013.7 3 Good 0.00 0.00 55.2 81.4
6/12/21 - 1600 80.1 81.2 - 53 61.5 NNW | 342 11.1 19.8 803 1,013.4 3 Good 0.00 0.00 55.2 81.4
6/12/21 - 1500 79.8 - - 56 62.9 N | 356 9.1 17.8 898 1,013.6 4 Good 0.00 0.00 55.2 81.4
6/12/21 - 1400 77.9 - - 59 62.2 N | 353 6.9 16.2 938 1,014.2 5 Good 0.00 0.00 55.2 80.3
6/12/21 - 1300 76.0 - - 61 61.8 N | 360 5.1 13.5 929 1,014.9 5 Good 0.00 0.00 55.2 78.4
6/12/21 - 1200 73.2 - - 65 60.9 NNW | 334 4.3 11.1 865 1,015.7 5 Good 0.00 0.00 55.2 75.0
6/12/21 - 1100 69.9 - - 72 60.3 NNW | 345 2.6 8.6 764 1,016.6 6 Good 0.00 0.00 55.2 72.4
6/12/21 - 1000 66.2 - - 78 59.3 WNW | 288 2.3 6.4 479 1,017.7 7 Good 0.00 0.00 55.2 68.0
6/12/21 - 0900 64.2 - - 82 58.7 NNW | 346 1.9 4.7 218 1,018.0 7 Good 0.00 0.00 55.2 65.4
6/12/21 - 0800 62.9 - - 84 57.8 WSW | 256 1.4 4.6 117 1,018.3 10 Good 0.00 0.00 55.2 64.1
6/12/21 - 0700 62.0 - - 83 56.8 SW | 233 0.6 2.7 27 1,018.5 10 Good 0.00 0.00 55.2 62.6
6/12/21 - 0600 61.6 - - 83 56.4 ESE | 111 2.5 5.9 1 1,018.4 10 Good 0.00 0.00 55.2 62.3
6/12/21 - 0500 61.0 - - 79 54.6 SE | 129 2.7 6.5 0 1,018.8 10 Good 0.00 0.00 55.2 61.9
6/12/21 - 0400 59.5 - - 76 52.1 SE | 144 1.3 4.0 0 1,019.2 10 Good 0.00 0.00 55.2 61.0
6/12/21 - 0300 58.0 - - 78 51.2 SSW | 206 3.0 7.3 0 1,019.8 10 Good 0.00 0.00 55.2 59.1
6/12/21 - 0200 55.8 - - 82 50.3 SSW | 208 3.5 8.0 0 1,020.1 10 Good 0.00 0.00 55.2 56.9
6/12/21 - 0100 55.9 - - 82 50.3 S | 191 2.2 5.8 0 1,020.2 10 Good 0.00 0.00 42.6 74.0
6/12/21 - 0000 57.4 - - 83 52.2 SSW | 199 1.1 4.4 0 1,020.5 8 Good 0.00 0.00 42.6 74.0
6/11/21 - 2300 59.2 - - 81 53.3 NW | 325 1.6 4.0 0 1,020.4 7 Good 0.00 0.00 42.6 74.0
6/11/21 - 2200 62.0 - - 69 51.8 NNW | 334 2.2 6.3 0 1,019.7 6 Good 0.00 0.00 42.6 74.0
6/11/21 - 2100 64.3 - - 60 50.2 NNW | 332 4.6 13.0 6 1,019.1 6 Good 0.00 0.00 42.6 74.0
6/11/21 - 2000 67.4 - - 54 50.1 NNW | 330 7.4 15.6 127 1,018.6 6 Good 0.00 0.00 42.6 74.0
6/11/21 - 1900 69.9 - - 47 48.7 NW | 318 10.5 19.3 305 1,018.2 4 Good 0.00 0.00 42.6 74.0
6/11/21 - 1800 72.5 - - 43 48.4 NNW | 334 8.0 17.9 492 1,018.2 4 Good 0.00 0.00 42.6 74.0
6/11/21 - 1700 72.2 - - 42 47.9 NW | 324 11.1 20.5 664 1,018.2 4 Good 0.00 0.00 42.6 74.0
6/11/21 - 1600 72.8 - - 41 48.1 NW | 317 9.6 18.6 805 1,017.9 3 Good 0.00 0.00 42.6 74.0
6/11/21 - 1500 72.8 - - 41 47.8 NNW | 328 9.2 17.9 904 1,018.2 4 Good 0.00 0.00 42.6 74.0
6/11/21 - 1400 71.2 - - 44 48.1 N | 10 9.5 18.7 947 1,018.9 4 Good 0.00 0.00 42.6 72.1
6/11/21 - 1300 68.8 - - 51 49.9 N | 356 7.0 13.7 939 1,019.5 6 Good 0.00 0.00 42.6 70.7
6/11/21 - 1200 68.4 - - 50 48.8 NNE | 31 5.2 11.9 881 1,020.0 5 Good 0.00 0.00 42.6 69.8
6/11/21 - 1100 65.6 - - 49 45.8 NE | 48 3.7 8.7 773 1,020.6 5 Good 0.00 0.00 42.6 68.3
6/11/21 - 1000 61.7 - - 55 45.5 NNW | 336 2.6 8.4 619 1,021.6 5 Good 0.00 0.00 42.6 64.1
6/11/21 - 0900 58.9 - - 62 45.8 N | 7 2.0 7.3 439 1,022.5 6 Good 0.00 0.00 42.6 61.2
6/11/21 - 0800 53.2 - - 67 42.6 S | 183 1.5 5.2 250 1,022.6 8 Good 0.00 0.00 42.6 58.0
6/11/21 - 0700 45.4 - - 77 38.6 SSW | 207 3.6 7.2 80 1,022.9 8 Good 0.00 0.00 42.6 48.8
6/11/21 - 0600 43.5 - 40.6 79 37.5 SSW | 202 4.9 8.1 2 1,022.7 5 Good 0.00 0.00 42.6 47.9
6/11/21 - 0500 44.1 - - 77 37.5 SSW | 212 3.8 7.1 0 1,022.8 5 Good 0.00 0.00 43.0 47.9
6/11/21 - 0400 44.0 - 41.5 77 37.3 SSW | 202 4.6 7.0 0 1,023.1 5 Good 0.00 0.00 43.3 47.9
6/11/21 - 0300 45.1 - 43.0 74 37.3 SSW | 193 4.2 7.4 0 1,023.5 5 Good 0.00 0.00 44.1 47.9
6/11/21 - 0200 46.0 - - 75 38.6 SSW | 193 4.2 7.3 0 1,023.9 6 Good 0.00 0.00 44.4 47.9
6/11/21 - 0100 46.3 - - 80 40.5 SSW | 211 2.8 6.6 0 1,024.0 7 Good 0.00 0.00 42.4 70.2
6/11/21 - 0000 48.7 - - 76 41.4 SSW | 205 3.6 6.9 0 1,024.2 7 Good 0.00 0.00 42.4 70.2
6/10/21 - 2300 49.9 - - 78 43.4 W | 275 2.0 5.3 0 1,024.2 8 Good 0.00 0.00 42.4 70.2
6/10/21 - 2200 54.8 - - 67 43.9 NW | 304 2.3 5.6 0 1,023.6 6 Good 0.00 0.00 42.4 70.2
6/10/21 - 2100 58.5 - - 55 42.2 NW | 320 5.0 13.1 9 1,023.3 5 Good 0.00 0.00 42.4 70.2
6/10/21 - 2000 61.2 - - 47 40.8 NW | 320 8.5 16.0 124 1,023.4 4 Good 0.00 0.00 42.4 70.2
6/10/21 - 1900 63.4 - - 48 43.2 NNW | 332 9.0 17.9 314 1,023.1 5 Good 0.00 0.00 42.4 70.2
6/10/21 - 1800 66.1 - - 43 42.8 NW | 326 8.9 17.0 512 1,023.1 5 Good 0.00 0.00 42.4 70.2
6/10/21 - 1700 67.6 - - 39 41.9 WNW | 285 9.4 18.6 692 1,023.2 4 Good 0.00 0.00 42.4 70.2
Max 80.1 - 43.0 84 62.9 - 11.1 20.5 947 1,024.2 10 - 0.00 0.00 55.2 81.4
Avg 62.2 - 41.7 64 49.2 - 5.0 10.7 339 1,019.9 6 - 0.00 - - -
Min 43.5 - 40.6 39 37.3 - 0.6 2.7 0 1,013.4 3 - 0.00 0.00 42.4 47.9
Total - - - - - - - - - - - - 0.00 - - -

Last 30 Days

Stanford Met Tower

Daily Data | America/Los_Angeles
as of 6/12/21 5:04 PM PDT
Date Daily Max Temp (°F) Time of Max Temp Daily Min Temp (°F) Time of Min Temp Daily Rain (In) Monthly Rain (In) Seasonal Rainfall (In) Daily Max Wind (mph) Time of Max Wind Max Wind Dir (°) Dew Pt (°F) Max RH (%) Min RH (%) Daily ETo (in) Daily Solar Rad (Cal/cm2) PM2.5 Daily Max (ug/m3) Time of Max PM2.5 Max Pressure (mb) (mb) Time of Max Press Min pressure (mb) (mb) Time of Min Press Max Temp Inversion (°F) Time of Max Temp Inversion Min Temp Inversion (°F) Time of Min Temp Inversion HDDs (°F) CDDs (°F) GDDs (DL) Seas GDDs (DL) Chilling <=45F (hrs) Bat Volt Min Day (V)
6/11/21 74.0 1516 42.6 0540 0.00 0.00 7.38 20.5 1647 NW | 318 45.9 85 37 0.210 708 1.5 0100 1,024.0 0101 1,018.0 1537 3.3 2325 -10.8 1224 7.1 2.2 11.4 620 4.0 12.2
6/10/21 70.2 1420 42.4 0532 0.00 0.00 7.38 20.6 1551 WNW | 292 43.6 95 34 0.204 730 2.0 0100 1,028.0 0621 1,023.0 1728 6.0 0508 -10.3 1351 9.2 0.6 7.9 608 3.7 12.2
6/9/21 65.8 1354 42.2 0602 0.00 0.00 7.38 26.1 1541 WNW | 289 44.7 93 44 0.189 724 3.2 0100 1,028.0 0046 1,022.0 1233 6.6 0542 -8.7 1145 9.5 0.0 6.6 600 1.9 12.2
6/8/21 66.8 1403 46.4 0413 0.00 0.00 7.38 23.3 1533 NNW | 331 44.8 92 42 0.199 734 5.2 0100 1,023.0 2248 1,018.0 0242 4.5 0434 -9.4 1113 7.9 0.0 7.4 594 0.0 12.2
6/7/21 68.9 1126 45.7 0617 0.00 0.00 7.38 27.9 1358 NW | 309 45.3 91 39 0.193 714 13.3 0100 1,018.0 0055 1,014.0 1045 5.4 0515 -9.2 1154 7.9 0.2 7.6 586 0.0 12.2
6/6/21 78.4 1522 48.1 0535 0.00 0.00 7.38 18.8 1440 SSW | 195 48.0 92 28 0.212 714 20.8 0100 1,015.0 0053 1,010.0 1547 4.1 0011 -10.3 1254 5.8 2.9 12.2 579 0.0 12.2
6/5/21 82.1 1610 47.8 0551 0.00 0.00 7.38 12.5 1704 NE | 42 51.5 94 35 0.208 700 14.5 0100 1,017.0 0235 1,011.0 1648 3.3 2219 -11.2 1147 5.2 4.3 14.2 567 0.0 12.2
6/4/21 77.1 1606 51.6 0607 0.00 0.00 7.38 16.6 1533 N | 350 52.9 96 38 0.200 701 13.3 0100 1,017.0 0834 1,014.0 1522 3.6 0524 -11.4 1400 4.6 2.4 12.9 552 0.0 12.2
6/3/21 80.2 1753 54.7 0040 0.00 0.00 7.38 14.6 1744 N | 349 55.2 92 34 0.200 679 2.8 0100 1,015.0 0059 1,010.0 1602 3.5 2355 -11.4 1308 3.8 3.4 14.6 540 0.0 12.2
6/2/21 69.6 1704 54.5 2329 0.00 0.00 7.38 14.3 1549 NNE | 32 54.5 92 61 0.169 628 7.3 0100 1,017.0 0802 1,012.0 1525 1.5 2323 -11.4 1212 4.9 0.7 10.9 525 0.0 12.2
6/1/21 74.8 1333 51.3 0554 0.00 0.00 7.38 15.3 1538 NNE | 28 56.6 96 56 0.190 692 22.0 0100 1,017.0 0759 1,014.0 1533 4.5 0111 -11.1 1335 4.8 2.4 12.6 514 0.0 12.2
5/31/21 82.1 1346 48.6 0550 0.00 0.00 7.38 13.8 1500 N | 355 55.0 96 44 0.215 696 24.3 0100 1,016.0 0017 1,011.0 1529 4.0 0003 -11.1 1343 4.9 5.5 15.6 501 0.0 12.2
5/30/21 82.5 1408 46.1 0611 0.00 0.00 7.38 10.8 1518 N | 7 52.3 96 42 0.207 699 9.0 0100 1,017.0 0118 1,010.0 1514 3.0 2348 -11.0 1246 6.5 4.0 13.1 486 0.0 12.2
5/29/21 66.6 1556 45.0 0528 0.00 0.00 7.38 20.4 1625 S | 187 48.5 97 56 0.165 644 13.3 0100 1,019.0 0704 1,014.0 1449 4.3 0501 -9.2 1100 9.3 0.1 6.5 473 0.0 12.2
5/28/21 77.9 1544 50.7 0339 0.00 0.00 7.38 16.0 1558 SSW | 192 51.2 96 35 0.195 694 1.0 0100 1,021.0 0101 1,015.0 1545 5.0 0123 -10.7 1349 5.8 1.9 11.1 466 0.0 12.2
5/27/21 73.8 1340 41.2 0537 0.00 0.00 7.38 23.2 1504 NW | 323 49.6 95 42 0.198 709 7.5 0100 1,024.0 0611 1,019.0 1445 5.4 0641 -10.0 1153 7.2 1.6 10.8 455 3.7 12.2
5/26/21 77.4 1615 43.5 0556 0.00 0.00 7.38 14.1 1515 NNW | 348 47.6 92 35 0.208 720 13.3 0100 1,023.0 0044 1,017.0 1535 2.7 2346 -11.2 1232 8.3 2.8 10.7 444 1.9 12.2
5/25/21 69.4 1326 47.4 0059 0.00 0.00 7.38 20.3 1559 NW | 322 47.6 94 46 0.193 709 4.7 0100 1,023.0 0741 1,019.0 1830 4.9 2243 -9.6 1229 7.3 0.6 8.6 434 0.0 12.2
5/24/21 76.8 1555 45.2 0407 0.00 0.00 7.38 20.0 1741 NNW | 336 50.4 96 36 0.178 678 3.8 0100 1,024.0 0808 1,019.0 1543 4.0 0024 -10.9 1420 7.1 1.8 10.2 425 0.0 12.2
5/23/21 71.3 1429 43.1 0554 0.00 0.00 7.38 20.2 1610 NW | 322 46.2 96 40 0.190 697 12.5 0100 1,024.0 0751 1,021.0 1506 4.5 0542 -10.9 1213 8.8 0.7 7.7 415 1.7 12.2
5/22/21 74.1 1516 41.8 0600 0.00 0.00 7.38 17.2 1710 WNW | 301 43.7 93 26 0.203 701 12.0 0100 1,023.0 0043 1,018.0 1457 3.6 0435 -10.8 1208 8.7 2.0 9.5 407 2.9 12.2
5/21/21 69.5 1449 38.8 0605 0.00 0.00 7.38 19.8 1419 SSE | 155 40.0 89 27 0.196 708 9.3 0100 1,020.0 2333 1,015.0 1523 3.5 0301 -9.9 1309 10.2 0.4 7.1 398 4.8 12.3
5/20/21 62.3 1641 43.2 0553 0.00 0.00 7.38 28.7 1454 NW | 306 39.2 85 39 0.187 714 5.8 0100 1,021.0 0756 1,018.0 1810 4.7 0546 -9.8 1123 10.8 0.0 4.9 391 0.5 12.2
5/19/21 63.2 1241 45.9 0559 0.00 0.00 7.38 32.1 1317 WNW | 293 41.6 86 43 0.181 700 7.3 0100 1,021.0 0144 1,017.0 1430 4.3 0627 -8.8 1205 9.9 0.0 5.3 386 0.0 12.2
5/18/21 73.9 1449 42.6 0540 0.00 0.00 7.38 21.8 1558 WNW | 302 42.8 96 22 0.211 705 4.3 0100 1,023.0 0718 1,018.0 1502 4.0 2242 -10.0 1218 8.4 1.6 9.5 380 3.0 12.2
5/17/21 72.0 1442 48.4 0640 0.00 0.00 7.38 17.7 1151 SW | 232 48.1 91 41 0.176 664 1.2 0100 1,022.0 0048 1,018.0 1455 3.7 0034 -9.4 1446 7.9 0.4 7.5 371 0.0 12.2
5/16/21 67.6 1453 50.6 0447 0.00 0.00 7.38 18.2 2330 S | 189 49.6 88 57 0.165 633 5.2 0100 1,019.0 0058 1,015.0 1528 0.4 0351 -8.9 1316 7.7 0.1 7.4 364 0.0 12.2
5/15/21 63.7 1550 51.2 0450 0.00 0.00 7.38 20.1 1307 SW | 228 48.4 87 61 0.134 530 5.5 0100 1,017.0 0101 1,013.0 1622 0.3 2109 -8.2 1211 9.2 0.0 5.8 356 0.0 12.3
5/14/21 71.2 1617 50.7 0004 0.00 0.00 7.38 18.8 2029 S | 171 49.3 89 47 0.182 667 5.2 0100 1,019.0 0116 1,014.0 1731 0.8 0005 -10.9 1458 7.1 0.7 8.6 350 0.0 12.2
5/13/21 68.0 1602 51.8 2209 0.00 0.00 7.38 15.0 1556 NE | 35 51.9 94 55 0.171 652 9.5 0100 1,021.0 0804 1,016.0 1549 1.4 2159 -11.2 1441 6.2 0.2 9.1 342 0.0 12.2
Max 82.5 - 54.7 - 0.00 0.00 - 32.1 - - 56.6 97 61 0.215 734 24.3 - 1,028.0 - 1,023.0 - 6.6 - -8.2 - 10.8 5.5 15.6 - 4.8 12.3
Avg - - - - - 0.00 - - - - 48.2 - - - - - - 1,020.5 - 1,015.8 - - - - - - - 9.6 - 0.9 -
Min 62.3 - 38.8 - 0.00 0.00 - 10.8 - - 39.2 85 22 0.134 530 1.0 - 1,015.0 - 1,010.0 - 0.3 - -11.4 - 3.8 0.0 4.9 - 0.0 12.2
Total - - - - - - - - - - - - - - - - - - - - - - - - - - - 287.0 - 28.1 -
Calm: 0.5%
Calm: 0.0%

Climate Summary

Stanford Met Tower

Current Year | Showing 1/1/21 - 6/11/21
as of 6/12/21 5:04 PM PDT
Temperature (°F) Precip (in) Days
Month Days Avg Max Avg Min Max Max Min Min Total Daily Min Temp < 32 Daily Min Temp < 40 Daily Max Temp > 90 Daily Max Temp > 100 Daily Rain > 0.01 Daily Rain > 0.1
Jan 2021 31 61.5 39.3 77.7 31 3.78 2 16 0 0 7 7
Feb 2021 28 64.3 38.5 77.4 32.8 0.57 0 19 0 0 5 2
Mar 2021 31 64.3 36.9 82.6 32.3 1.19 0 26 0 0 6 6
Apr 2021 30 69.1 40 84.5 35.2 0 0 14 0 0 0 0
May 2021 31 74.5 45.7 87.4 38.8 0 0 1 0 0 0 0
Jun 2021 11 73.4 47.9 82.1 42.2 0 0 0 0 0 0 0
Total 162 - - - - 5.54 2 76 0 0 18 15
Average 27 67.9 41.4 - - 0.92 0.3 12.7 0 0 3 2.5
Maximum 31 74.5 47.9 87.4 - 3.78 2 26 0 0 7 7
Minimum 11 61.5 36.9 - 31 0 0 0 0 0 0 0

Climate Summary

Stanford Met Tower

Last Year | Showing 1/1/20 - 12/31/20
as of 6/12/21 5:04 PM PDT
Temperature (°F) Precip (in) Days
Month Days Avg Max Avg Min Max Max Min Min Total Daily Min Temp < 32 Daily Min Temp < 40 Daily Max Temp > 90 Daily Max Temp > 100 Daily Rain > 0.01 Daily Rain > 0.1
Jan 2020 31 60.2 38.4 84.2 32.1 0.94 0 21 0 0 5 1
Feb 2020 29 66.4 37.1 77.7 29.2 0 3 24 0 0 0 0
Mar 2020 31 63 41.7 78.5 33.1 1.63 0 10 0 0 10 5
Apr 2020 30 69.6 44.4 85.5 34.1 0.94 0 6 0 0 3 3
May 2020 31 77.2 48.2 96.7 37.8 0.21 0 1 4 0 2 1
Jun 2020 30 79.7 52.9 95.6 44.5 0 0 0 5 0 0 0
Jul 2020 31 80.3 54.1 93.1 47.9 0 0 0 1 0 0 0
Aug 2020 31 83.6 57.8 101.6 51 0.13 0 0 7 1 1 1
Sep 2020 30 82.5 54.8 107.5 50.1 0.02 0 0 5 2 1 0
Oct 2020 31 81.4 49 95.1 39.7 0 0 2 7 0 0 0
Nov 2020 30 65.9 38.1 80.1 29.5 0.44 5 17 0 0 4 2
Dec 2020 31 61.7 36.1 74.5 29.5 1.25 3 27 0 0 6 3
Total 366 - - - - 5.56 11 108 29 3 32 16
Average 30.5 72.6 46.1 - - 0.46 0.9 9 2.4 0.2 2.7 1.3
Maximum 31 83.6 57.8 107.5 - 1.63 5 27 7 2 10 5
Minimum 29 60.2 36.1 - 29.2 0 0 0 0 0 0 0

Climate Summary 2018

Stanford Met Tower

1/1/2018 - 12/31/2018 | Showing 1/1/18 - 12/31/18
as of 6/12/21 5:04 PM PDT
Temperature (°F) Precip (in) Days
Month Days Avg Max Avg Min Max Max Min Min Total Daily Min Temp < 32 Daily Min Temp < 40 Daily Max Temp > 90 Daily Max Temp > 100 Daily Rain > 0.01 Daily Rain > 0.1
Jan 2018 31 64.1 41.9 74 33.4 3.42 0 13 0 0 9 5
Feb 2018 28 69.4 36.9 83.9 26.6 0.33 6 17 0 0 2 1
Mar 2018 31 68.7 41.1 87 32.2 3.53 0 14 0 0 13 10
Apr 2018 30 73.2 43.4 85.7 36 1.38 0 6 0 0 7 3
May 2018 31 75.3 47.2 95.5 40.8 0 0 0 1 0 0 0
Jun 2018 30 84.1 49.6 101.9 42.5 0 0 0 8 1 0 0
Jul 2018 31 85.4 55.9 96.9 51.5 0.02 0 0 6 0 0 0
Aug 2018 31 84.4 53.5 94.5 47.9 0 0 0 7 0 0 0
Sep 2018 28 83.2 48.8 95.7 42.6 0 0 0 3 0 0 0
Oct 2018 31 79.9 46.7 88.1 39.6 0.05 0 1 0 0 2 0
Nov 2018 30 70.8 40.8 86.5 31.5 1.95 1 15 0 0 6 4
Dec 2018 31 61.7 39.4 67.1 31.1 1.44 1 20 0 0 7 5
Total 363 - - - - 12.12 8 86 25 1 46 28
Average 30.2 75 45.4 - - 1.01 0.7 7.2 2.1 0.1 3.8 2.3
Maximum 31 85.4 55.9 101.9 - 3.53 6 20 8 1 13 10
Minimum 28 61.7 36.9 - 26.6 0 0 0 0 0 0 0

Climate Summary 2017

Stanford Met Tower

1/1/2017 - 12/31/2017 | Showing 1/1/17 - 12/31/17
as of 6/12/21 5:04 PM PDT
Temperature (°F) Precip (in) Days
Month Days Avg Max Avg Min Max Max Min Min Total Daily Min Temp < 32 Daily Min Temp < 40 Daily Max Temp > 90 Daily Max Temp > 100 Daily Rain > 0.01 Daily Rain > 0.1
Jan 2017 31 59.2 38.6 67.9 27.2 10.05 5 17 0 0 17 13
Feb 2017 28 63.5 44.2 72.8 31.9 8.52 1 10 0 0 14 12
Mar 2017 31 71.7 43.2 84.4 33 2.7 0 7 0 0 8 7
Apr 2017 30 73.7 44.7 86.2 36.3 2.08 0 5 0 0 9 6
May 2017 31 79.6 48.3 96 41 0.01 0 0 6 0 0 0
Jun 2017 30 84.1 52.1 106.2 42.7 0.04 0 0 7 1 1 0
Jul 2017 31 88.3 53.9 103.6 47.6 0.01 0 0 8 3 0 0
Aug 2017 31 85 56.6 98.6 50.5 0 0 0 7 0 0 0
Sep 2017 30 87.4 54.8 110.8 43.7 0.06 0 0 10 2 1 0
Oct 2017 31 81.7 45.1 95.5 38.6 0.13 0 1 4 0 2 0
Nov 2017 30 68.5 44.8 75.4 35.9 2.67 0 6 0 0 8 4
Dec 2017 31 64.4 33.9 72.8 27.9 0.1 5 31 0 0 2 0
Total 365 - - - - 26.37 11 77 42 6 62 42
Average 30.4 75.6 46.7 - - 2.2 0.9 6.4 3.5 0.5 5.2 3.5
Maximum 31 88.3 56.6 110.8 - 10.05 5 31 10 3 17 13
Minimum 28 59.2 33.9 - 27.2 0 0 0 0 0 0 0